Time;durP1;ratioP1;P1;durP2;ratioP2;P2;SDS_P1;SDS_P2;PMS_P1;PMS_P2;Temp;Humidity;BMP_temperature;BMP_pressure;BME280_temperature;BME280_humidity;BME280_pressure;Samples;Min_cycle;Max_cycle;Signal;HPM_P1;HPM_P2
2022/01/15 00:01:39;;;;;;;11.53;6.57;;;-1.60;99.90;;;;;;5014404;28;20241;-77
2022/01/15 00:04:05;;;;;;;7.63;5.73;;;-1.60;99.90;;;;;;5014964;28;20530;-77
2022/01/15 00:06:30;;;;;;;9.73;5.87;;;-1.60;99.90;;;;;;5014510;28;20245;-77
2022/01/15 00:08:56;;;;;;;9.57;6.97;;;-1.60;99.90;;;;;;5013516;28;20422;-77
2022/01/15 00:11:22;;;;;;;10.17;6.87;;;-1.60;99.90;;;;;;5029758;28;20675;-77
2022/01/15 00:13:55;;;;;;;12.87;6.77;;;-1.70;99.90;;;;;;5014637;28;20561;-77
2022/01/15 00:19:10;;;;;;;10.47;7.30;;;-1.70;99.90;;;;;;5015492;28;20481;-77
2022/01/15 00:21:35;;;;;;;10.60;6.47;;;-1.70;99.90;;;;;;5030034;28;20440;-77
2022/01/15 00:24:02;;;;;;;10.53;6.80;;;-1.80;99.90;;;;;;5030468;28;20414;-77
2022/01/15 00:26:28;;;;;;;8.67;6.03;;;-1.80;99.90;;;;;;5016769;28;20174;-77
2022/01/15 00:28:54;;;;;;;9.27;5.93;;;-1.80;99.90;;;;;;5019293;28;20409;-77
2022/01/15 00:31:20;;;;;;;8.70;6.53;;;-1.70;99.90;;;;;;5018791;28;20433;-77
2022/01/15 00:33:46;;;;;;;8.77;6.23;;;-1.80;99.90;;;;;;5020287;28;20418;-77
2022/01/15 00:36:12;;;;;;;7.03;6.13;;;-1.70;99.90;;;;;;5017754;28;20413;-77
2022/01/15 00:38:38;;;;;;;9.27;6.60;;;-1.70;99.90;;;;;;5015191;28;20177;-77
2022/01/15 00:41:03;;;;;;;8.87;6.27;;;-1.80;99.90;;;;;;5017070;28;20559;-78
2022/01/15 00:43:29;;;;;;;11.07;7.37;;;-1.80;99.90;;;;;;5018642;28;20665;-77
2022/01/15 00:45:58;;;;;;;8.70;6.47;;;-1.90;99.90;;;;;;5018801;28;20253;-77
2022/01/15 00:48:27;;;;;;;9.87;5.97;;;-1.90;99.90;;;;;;5018494;28;20199;-77
2022/01/15 00:50:53;;;;;;;11.37;6.73;;;-2.10;99.90;;;;;;5018207;28;20426;-77
2022/01/15 00:53:19;;;;;;;9.30;6.03;;;-2.10;99.90;;;;;;5018147;28;20432;-77
2022/01/15 00:55:44;;;;;;;8.53;6.10;;;-2.10;99.90;;;;;;5016943;28;20179;-77
2022/01/15 00:58:10;;;;;;;10.27;6.47;;;-2.10;99.90;;;;;;5016747;28;20183;-77
2022/01/15 01:00:36;;;;;;;7.80;5.60;;;-2.20;99.90;;;;;;5017902;28;20199;-77
2022/01/15 01:03:02;;;;;;;7.37;5.53;;;-2.20;99.90;;;;;;5016530;28;20656;-77
2022/01/15 01:05:28;;;;;;;7.10;5.80;;;-2.30;99.90;;;;;;5017691;28;20205;-77
2022/01/15 01:07:56;;;;;;;7.20;5.33;;;-2.30;99.90;;;;;;5017416;28;20458;-77
2022/01/15 01:23:47;;;;;;;7.80;5.50;;;-2.40;99.90;;;;;;5018331;28;20401;-77
2022/01/15 01:26:25;;;;;;;8.33;5.27;;;-2.30;99.90;;;;;;5017907;28;20405;-77
2022/01/15 01:29:15;;;;;;;7.20;5.07;;;-2.40;99.90;;;;;;5016668;28;20182;-77
2022/01/15 01:31:55;;;;;;;7.70;6.27;;;-2.30;99.90;;;;;;5016069;28;20442;-77
2022/01/15 01:34:23;;;;;;;6.67;5.53;;;-2.30;99.90;;;;;;5033140;28;20502;-77
2022/01/15 01:37:05;;;;;;;9.67;5.97;;;-2.30;99.90;;;;;;5018282;28;20822;-77
2022/01/15 01:39:47;;;;;;;7.87;5.27;;;-2.20;99.90;;;;;;5018117;28;20948;-78
2022/01/15 01:44:59;;;;;;;7.00;5.07;;;-2.20;99.90;;;;;;5017765;28;20424;-77
2022/01/15 01:47:35;;;;;;;7.33;5.63;;;-2.20;99.90;;;;;;5017742;28;20461;-78
2022/01/15 01:50:01;;;;;;;7.80;6.30;;;-2.20;99.90;;;;;;5017750;28;20762;-77
2022/01/15 01:52:27;;;;;;;8.30;6.57;;;-2.20;99.90;;;;;;5016034;28;20508;-78
2022/01/15 01:54:53;;;;;;;8.20;5.93;;;-2.20;99.90;;;;;;5017257;28;20171;-77
2022/01/15 01:57:19;;;;;;;8.20;6.07;;;-2.20;99.90;;;;;;5017951;28;20179;-77
2022/01/15 01:59:44;;;;;;;8.03;5.67;;;-2.20;99.90;;;;;;5023422;28;20445;-78
2022/01/15 02:02:10;;;;;;;8.13;6.27;;;-2.20;99.90;;;;;;5017437;28;20202;-77
2022/01/15 02:04:36;;;;;;;7.13;5.50;;;-2.20;99.90;;;;;;5032922;28;20648;-77
2022/01/15 02:07:02;;;;;;;8.13;6.10;;;-2.20;99.90;;;;;;5017018;28;20210;-78
2022/01/15 02:09:27;;;;;;;9.80;6.60;;;-2.20;99.90;;;;;;5017237;28;20171;-78
2022/01/15 02:11:53;;;;;;;7.07;5.97;;;-2.20;99.90;;;;;;5015780;28;20189;-77
2022/01/15 02:14:29;;;;;;;9.10;7.07;;;-2.10;99.90;;;;;;5017213;28;20659;-78
2022/01/15 02:16:55;;;;;;;7.97;6.80;;;-2.10;99.90;;;;;;5015675;28;20178;-78
2022/01/15 02:19:21;;;;;;;7.70;6.57;;;-2.00;99.90;;;;;;5015855;28;20418;-77
2022/01/15 02:24:16;;;;;;;10.03;7.40;;;-2.00;99.90;;;;;;5017111;28;20820;-77
2022/01/15 02:26:42;;;;;;;10.37;7.73;;;-2.00;99.90;;;;;;5017034;28;20457;-78
2022/01/15 02:29:09;;;;;;;11.90;7.27;;;-2.00;99.90;;;;;;5017158;28;20175;-77
2022/01/15 02:31:36;;;;;;;9.30;7.03;;;-2.00;99.90;;;;;;5015284;28;20194;-77
2022/01/15 02:34:05;;;;;;;10.37;7.37;;;-2.10;99.90;;;;;;5016928;28;20444;-77
2022/01/15 02:36:33;;;;;;;10.67;7.30;;;-2.10;99.90;;;;;;5017165;28;20407;-77
2022/01/15 02:38:59;;;;;;;9.37;7.13;;;-2.10;99.90;;;;;;5015823;28;20417;-77
2022/01/15 02:41:38;;;;;;;10.83;7.27;;;-2.10;99.90;;;;;;5016548;28;20484;-78
2022/01/15 02:44:09;;;;;;;11.67;7.27;;;-2.20;99.90;;;;;;5016937;28;20386;-78
2022/01/15 02:48:00;;;;;;;11.67;7.27;;;-2.30;99.90;;;;;;5015348;28;20410;-77
2022/01/15 02:49:23;;;;;;;11.43;7.57;;;-2.30;99.90;;;;;;5016871;28;20422;-78
2022/01/15 02:51:49;;;;;;;9.00;6.57;;;-2.30;99.90;;;;;;5016713;28;20488;-77
2022/01/15 02:54:15;;;;;;;10.17;6.60;;;-2.30;99.90;;;;;;5016835;28;20448;-77
2022/01/15 02:56:43;;;;;;;10.50;6.60;;;-2.40;99.90;;;;;;5018715;28;20179;-77
2022/01/15 02:59:21;;;;;;;9.70;6.87;;;-2.40;99.90;;;;;;5016867;28;20649;-77
2022/01/15 03:01:49;;;;;;;7.93;6.20;;;-2.50;99.90;;;;;;5015809;28;20420;-77
2022/01/15 03:04:15;;;;;;;8.23;6.50;;;-2.50;99.90;;;;;;5014652;28;20429;-78
2022/01/15 03:06:41;;;;;;;11.07;7.03;;;-2.50;99.90;;;;;;5015590;28;20471;-77
2022/01/15 03:09:07;;;;;;;11.80;7.37;;;-2.60;99.90;;;;;;5031342;28;20414;-77
2022/01/15 03:11:32;;;;;;;10.53;6.70;;;-2.60;99.90;;;;;;5015591;28;20195;-77
2022/01/15 03:13:58;;;;;;;11.43;7.00;;;-2.70;99.90;;;;;;5015805;28;20542;-77
2022/01/15 03:16:24;;;;;;;13.40;7.43;;;-2.70;99.90;;;;;;5015626;28;20171;-78
2022/01/15 03:18:50;;;;;;;8.70;5.80;;;-2.70;99.90;;;;;;5014666;28;20262;-77
2022/01/15 03:21:16;;;;;;;9.13;6.10;;;-2.70;99.90;;;;;;5014171;28;20226;-77
2022/01/15 03:23:42;;;;;;;10.77;6.03;;;-2.70;99.90;;;;;;5015319;28;20472;-77
2022/01/15 03:26:08;;;;;;;9.07;5.53;;;-2.80;99.90;;;;;;5015592;28;20417;-77
2022/01/15 03:28:37;;;;;;;7.83;5.27;;;-2.90;99.90;;;;;;5015459;28;20478;-78
2022/01/15 03:31:03;;;;;;;11.27;5.43;;;-2.90;99.90;;;;;;5014007;28;20199;-77
2022/01/15 03:33:29;;;;;;;7.77;5.80;;;-3.10;99.90;;;;;;5013929;28;20420;-77
2022/01/15 03:35:54;;;;;;;8.70;6.03;;;-3.10;99.90;;;;;;5015688;28;20703;-77
2022/01/15 03:38:20;;;;;;;8.70;6.10;;;-3.10;99.90;;;;;;5016420;28;20565;-77
2022/01/15 03:40:46;;;;;;;7.57;5.23;;;-3.10;99.90;;;;;;5015313;28;20208;-78
2022/01/15 03:43:12;;;;;;;8.23;5.27;;;-3.10;99.90;;;;;;5013824;28;20194;-77
2022/01/15 03:45:38;;;;;;;8.17;5.37;;;-3.10;99.90;;;;;;5015831;28;20405;-77
2022/01/15 03:48:04;;;;;;;6.90;5.37;;;-3.20;99.90;;;;;;5030461;28;20293;-77
2022/01/15 03:50:29;;;;;;;7.53;5.30;;;-3.30;99.90;;;;;;5015153;28;20191;-78
2022/01/15 03:52:57;;;;;;;8.90;6.20;;;-3.30;99.90;;;;;;5015056;28;20192;-77
2022/01/15 03:55:23;;;;;;;9.17;6.33;;;-3.30;99.90;;;;;;5030466;28;20605;-77
2022/01/15 03:57:49;;;;;;;8.50;5.33;;;-3.30;99.90;;;;;;5030079;28;20421;-77
2022/01/15 04:00:20;;;;;;;6.60;5.70;;;-3.40;99.90;;;;;;5012703;28;20527;-77
2022/01/15 04:02:48;;;;;;;8.00;5.53;;;-3.50;99.90;;;;;;5013128;28;20519;-77
2022/01/15 04:05:14;;;;;;;7.60;5.60;;;-3.50;99.90;;;;;;5012864;28;20901;-77
2022/01/15 04:07:40;;;;;;;9.57;6.30;;;-3.50;99.90;;;;;;5015093;28;20917;-77
2022/01/15 04:10:09;;;;;;;9.63;5.47;;;-3.50;99.90;;;;;;5018858;28;20434;-77
2022/01/15 04:12:35;;;;;;;9.40;6.27;;;-3.50;99.90;;;;;;5018761;28;20175;-77
2022/01/15 04:15:01;;;;;;;9.00;5.83;;;-3.50;99.90;;;;;;5015208;28;20755;-77
2022/01/15 04:17:26;;;;;;;8.83;5.57;;;-3.60;99.90;;;;;;5029623;28;20657;-77
2022/01/15 04:19:52;;;;;;;6.70;5.33;;;-3.50;99.90;;;;;;5013096;28;20478;-77
2022/01/15 04:22:18;;;;;;;9.00;5.43;;;-3.60;99.90;;;;;;5014424;28;20179;-77
2022/01/15 04:24:44;;;;;;;7.37;5.17;;;-3.60;99.90;;;;;;5012792;28;20660;-77
2022/01/15 04:27:10;;;;;;;7.60;4.93;;;-3.60;99.90;;;;;;5012775;28;20210;-77
2022/01/15 04:29:36;;;;;;;8.23;5.57;;;-3.60;99.90;;;;;;5014284;28;20181;-77
2022/01/15 04:32:02;;;;;;;9.20;5.73;;;-3.70;99.90;;;;;;5012622;28;20517;-77
2022/01/15 04:34:29;;;;;;;7.20;4.70;;;-3.70;99.90;;;;;;5012627;28;20262;-77
2022/01/15 04:37:05;;;;;;;6.33;4.77;;;-3.80;99.90;;;;;;5014452;28;20901;-77
2022/01/15 04:39:31;;;;;;;7.97;5.03;;;-3.90;99.90;;;;;;5013855;28;20398;-77
2022/01/15 04:41:56;;;;;;;6.43;4.93;;;-3.90;99.90;;;;;;5012691;28;20417;-77
2022/01/15 04:44:22;;;;;;;7.73;5.30;;;-3.90;99.90;;;;;;5014025;28;20183;-77
2022/01/15 04:46:48;;;;;;;8.80;5.70;;;-3.90;99.90;;;;;;5013980;28;20199;-77
2022/01/15 04:49:14;;;;;;;6.43;4.97;;;-3.90;99.90;;;;;;5013630;28;20171;-77
2022/01/15 04:51:39;;;;;;;6.63;4.83;;;-4.00;99.90;;;;;;5013447;28;20187;-77
2022/01/15 04:54:05;;;;;;;7.47;5.33;;;-4.00;99.90;;;;;;5028911;28;20598;-77
2022/01/15 04:56:31;;;;;;;7.57;5.07;;;-4.10;99.90;;;;;;5013584;28;20664;-77
2022/01/15 04:58:57;;;;;;;6.40;4.70;;;-4.10;99.90;;;;;;5013710;28;20249;-77
2022/01/15 05:01:23;;;;;;;7.33;4.87;;;-4.10;99.90;;;;;;5013423;28;20191;-77
2022/01/15 05:03:49;;;;;;;8.20;5.20;;;-4.10;99.90;;;;;;5012426;28;20175;-77
2022/01/15 05:06:15;;;;;;;6.03;4.90;;;-4.10;99.90;;;;;;5013292;28;20669;-77
2022/01/15 05:08:42;;;;;;;6.53;5.07;;;-4.10;99.90;;;;;;5013591;28;20202;-77
2022/01/15 05:11:15;;;;;;;7.57;4.93;;;-4.10;99.90;;;;;;5028552;28;20438;-77
2022/01/15 05:13:41;;;;;;;6.63;4.77;;;-4.00;99.90;;;;;;5012129;28;20910;-77
2022/01/15 05:16:07;;;;;;;7.53;5.67;;;-4.10;99.90;;;;;;5028921;28;20509;-77
2022/01/15 05:18:33;;;;;;;7.80;5.70;;;-4.00;99.90;;;;;;5013508;28;20174;-77
2022/01/15 05:20:59;;;;;;;7.77;5.83;;;-4.00;99.90;;;;;;5013199;28;20205;-77
2022/01/15 05:23:25;;;;;;;9.17;5.80;;;-3.90;99.90;;;;;;5013399;28;20178;-77
2022/01/15 05:25:50;;;;;;;8.23;5.67;;;-3.90;99.90;;;;;;5013683;28;20410;-77
2022/01/15 05:28:16;;;;;;;7.83;5.93;;;-3.90;99.90;;;;;;5017142;28;20681;-77
2022/01/15 05:30:41;;;;;;;8.37;5.50;;;-3.90;99.90;;;;;;5016693;28;20213;-77
2022/01/15 05:33:07;;;;;;;8.67;5.83;;;-3.90;99.90;;;;;;5016679;28;20179;-77
2022/01/15 05:35:33;;;;;;;6.97;4.73;;;-4.00;99.90;;;;;;5017139;28;20179;-77
2022/01/15 05:37:59;;;;;;;7.73;5.50;;;-4.00;99.90;;;;;;5016884;28;20182;-77
2022/01/15 05:40:26;;;;;;;7.13;5.10;;;-4.10;99.90;;;;;;5016528;28;20202;-78
2022/01/15 05:42:53;;;;;;;7.97;5.50;;;-4.10;99.90;;;;;;5015287;28;20431;-77
2022/01/15 05:45:21;;;;;;;9.57;6.10;;;-4.10;99.90;;;;;;5015360;28;20437;-77
2022/01/15 05:47:47;;;;;;;7.00;5.80;;;-4.10;99.90;;;;;;5015732;28;20466;-77
2022/01/15 05:50:13;;;;;;;9.90;6.60;;;-4.10;99.90;;;;;;5016158;28;20433;-77
2022/01/15 05:52:38;;;;;;;9.80;6.77;;;-4.10;99.90;;;;;;5016406;28;20555;-77
2022/01/15 05:55:04;;;;;;;9.03;6.60;;;-4.00;99.90;;;;;;5016611;28;20565;-77
2022/01/15 05:57:30;;;;;;;9.00;6.00;;;-4.00;99.90;;;;;;5016211;28;20190;-77
2022/01/15 05:59:56;;;;;;;7.80;5.30;;;-4.10;99.90;;;;;;5014746;28;20450;-77
2022/01/15 06:02:22;;;;;;;12.87;5.87;;;-4.10;99.90;;;;;;5016117;28;20261;-77
2022/01/15 06:04:48;;;;;;;9.07;6.20;;;-4.10;99.90;;;;;;5014731;28;20205;-78
2022/01/15 06:07:14;;;;;;;6.70;5.30;;;-4.10;99.90;;;;;;5016051;28;20847;-77
2022/01/15 06:09:40;;;;;;;8.10;5.50;;;-4.10;99.90;;;;;;5014772;28;20444;-77
2022/01/15 06:12:06;;;;;;;8.87;5.90;;;-4.20;99.90;;;;;;5015914;28;20178;-77
2022/01/15 06:14:32;;;;;;;9.87;5.40;;;-4.20;99.90;;;;;;5014656;28;20633;-77
2022/01/15 06:16:58;;;;;;;7.73;5.03;;;-4.20;99.90;;;;;;5016002;28;20425;-77
2022/01/15 06:19:25;;;;;;;7.20;5.53;;;-4.30;99.90;;;;;;5015833;28;20189;-77
2022/01/15 06:21:51;;;;;;;6.13;4.67;;;-4.40;99.90;;;;;;5015833;28;20425;-77
2022/01/15 06:24:17;;;;;;;7.80;4.80;;;-4.50;99.90;;;;;;5014588;28;20451;-77
2022/01/15 06:26:43;;;;;;;9.10;5.43;;;-4.50;99.90;;;;;;5015608;28;20945;-77
2022/01/15 06:29:08;;;;;;;7.83;5.20;;;-4.50;99.90;;;;;;5014335;28;20636;-77
2022/01/15 06:31:34;;;;;;;8.50;6.00;;;-4.50;99.90;;;;;;5014229;28;20256;-77
2022/01/15 06:34:00;;;;;;;7.87;5.27;;;-4.50;99.90;;;;;;5015627;28;20173;-77
2022/01/15 06:36:26;;;;;;;10.30;6.70;;;-4.40;99.90;;;;;;5015447;28;20174;-77
2022/01/15 06:38:52;;;;;;;10.77;7.40;;;-4.40;99.90;;;;;;5030486;28;20426;-77
2022/01/15 06:41:19;;;;;;;9.43;6.73;;;-4.40;99.90;;;;;;5015188;28;20280;-77
2022/01/15 06:43:44;;;;;;;42.00;15.27;;;-4.40;99.90;;;;;;5015467;28;20421;-77
2022/01/15 06:46:10;;;;;;;37.10;15.93;;;-4.40;99.90;;;;;;5014236;28;20938;-77
2022/01/15 06:48:36;;;;;;;55.50;19.07;;;-4.50;99.90;;;;;;5014054;28;20676;-77
2022/01/15 06:51:02;;;;;;;53.20;19.40;;;-4.60;99.90;;;;;;5015109;28;20208;-77
2022/01/15 06:53:29;;;;;;;71.20;25.67;;;-4.60;99.90;;;;;;5014062;28;20190;-77
2022/01/15 06:55:54;;;;;;;61.57;22.63;;;-4.70;99.90;;;;;;5014065;28;20619;-77
2022/01/15 06:58:20;;;;;;;60.87;19.27;;;-4.70;99.90;;;;;;5014119;28;20520;-77
2022/01/15 07:00:46;;;;;;;21.73;11.17;;;-4.70;99.90;;;;;;5013785;28;20210;-77
2022/01/15 07:03:12;;;;;;;18.93;10.13;;;-4.70;99.90;;;;;;5015696;28;20179;-77
2022/01/15 07:05:38;;;;;;;36.20;16.00;;;-4.70;99.90;;;;;;5014910;28;20202;-77
2022/01/15 07:08:04;;;;;;;50.07;22.87;;;-4.70;99.90;;;;;;5014820;28;20205;-77
2022/01/15 07:10:29;;;;;;;28.40;14.30;;;-4.70;99.90;;;;;;5013466;28;20582;-77
2022/01/15 07:12:55;;;;;;;18.87;10.87;;;-4.80;99.90;;;;;;5014983;28;20206;-77
2022/01/15 07:15:21;;;;;;;27.43;14.60;;;-4.80;99.90;;;;;;5014854;28;20281;-77
2022/01/15 07:17:48;;;;;;;29.93;17.73;;;-4.20;99.90;;;;;;5013735;28;20189;-77
2022/01/15 07:20:16;;;;;;;22.27;13.33;;;-4.80;99.90;;;;;;5013509;28;20973;-77
2022/01/15 07:22:42;;;;;;;20.30;11.77;;;-4.80;99.90;;;;;;5014695;28;20597;-77
2022/01/15 07:25:09;;;;;;;25.30;13.77;;;-4.80;99.90;;;;;;5015028;28;20909;-77
2022/01/15 07:27:35;;;;;;;18.47;11.47;;;-4.90;99.90;;;;;;5013482;28;20827;-77
2022/01/15 07:30:06;;;;;;;10.77;7.30;;;-4.90;99.90;;;;;;5014904;28;20944;-77
2022/01/15 07:32:32;;;;;;;12.50;9.17;;;-4.90;99.90;;;;;;5015408;28;20418;-77
2022/01/15 07:34:58;;;;;;;10.73;8.20;;;-4.90;99.90;;;;;;5017622;28;20416;-77
2022/01/15 07:37:24;;;;;;;12.63;8.87;;;-4.90;99.90;;;;;;5015642;28;20181;-77
2022/01/15 07:39:49;;;;;;;10.77;7.20;;;-4.80;99.90;;;;;;5014329;28;20436;-77
2022/01/15 07:42:15;;;;;;;10.70;7.60;;;-4.80;99.90;;;;;;5013098;28;20194;-77
2022/01/15 07:44:41;;;;;;;9.17;5.67;;;-4.70;99.90;;;;;;5014682;28;20217;-77
2022/01/15 07:47:07;;;;;;;8.53;5.23;;;-4.70;99.90;;;;;;5014598;28;20204;-77
2022/01/15 07:49:33;;;;;;;12.97;5.47;;;-4.70;99.90;;;;;;5014039;28;20266;-77
2022/01/15 07:51:59;;;;;;;10.73;6.13;;;-4.70;99.90;;;;;;5013038;28;20452;-77
2022/01/15 07:54:25;;;;;;;7.87;5.33;;;-4.60;99.90;;;;;;5014428;28;20225;-77
2022/01/15 07:56:54;;;;;;;9.77;5.97;;;-4.50;99.90;;;;;;5013018;28;20507;-77
2022/01/15 07:59:21;;;;;;;8.80;5.50;;;-4.50;99.90;;;;;;5013560;28;20205;-77
2022/01/15 08:01:46;;;;;;;10.43;5.40;;;-4.40;99.90;;;;;;5014620;28;20513;-77
2022/01/15 08:04:12;;;;;;;9.37;5.00;;;-4.40;99.90;;;;;;5013553;28;20475;-77
2022/01/15 08:06:40;;;;;;;7.07;5.10;;;-4.40;99.90;;;;;;5014563;28;20213;-77
2022/01/15 08:09:07;;;;;;;11.90;6.10;;;-4.30;99.90;;;;;;5015069;28;20209;-77
2022/01/15 08:11:33;;;;;;;10.30;5.67;;;-4.30;99.90;;;;;;5029973;28;20437;-78
2022/01/15 08:13:59;;;;;;;12.07;5.90;;;-4.10;99.90;;;;;;5013966;28;20417;-77
2022/01/15 08:16:25;;;;;;;8.63;5.33;;;-4.00;99.90;;;;;;5014138;28;20269;-78
2022/01/15 08:18:50;;;;;;;9.53;4.80;;;-3.90;99.90;;;;;;5015066;28;20186;-77
2022/01/15 08:21:16;;;;;;;8.70;4.70;;;-3.80;99.90;;;;;;5014578;28;20679;-78
2022/01/15 08:23:42;;;;;;;7.37;5.07;;;-3.50;99.90;;;;;;5013967;28;20236;-77
2022/01/15 08:26:08;;;;;;;6.97;5.17;;;-2.90;99.90;;;;;;5015317;28;20229;-78
2022/01/15 08:28:33;;;;;;;9.50;5.40;;;-2.30;99.90;;;;;;5015442;28;20242;-78
2022/01/15 08:30:59;;;;;;;7.90;5.33;;;-1.60;99.90;;;;;;5015728;28;20195;-78
2022/01/15 08:33:25;;;;;;;8.13;5.13;;;-1.10;99.90;;;;;;5016520;28;20210;-78
2022/01/15 08:35:51;;;;;;;7.60;5.47;;;-0.70;99.90;;;;;;5033464;28;20437;-78
2022/01/15 08:38:16;;;;;;;9.43;5.93;;;-0.40;99.90;;;;;;5014674;28;20193;-78
2022/01/15 08:40:42;;;;;;;10.43;5.93;;;-0.20;99.90;;;;;;5016618;28;20293;-78
2022/01/15 08:43:08;;;;;;;7.93;5.63;;;-0.30;99.90;;;;;;5016333;28;20229;-78
2022/01/15 08:45:36;;;;;;;8.07;5.70;;;-0.50;99.90;;;;;;5016081;28;20190;-77
2022/01/15 08:48:02;;;;;;;8.90;5.80;;;-0.30;99.90;;;;;;5035953;28;20214;-78
2022/01/15 08:50:27;;;;;;;8.50;6.50;;;-0.20;99.90;;;;;;5016129;28;20473;-77
2022/01/15 08:52:53;;;;;;;8.23;5.40;;;0.00;99.90;;;;;;5015129;28;20246;-77
2022/01/15 08:55:28;;;;;;;9.10;6.53;;;0.20;99.90;;;;;;5015693;28;20171;-78
2022/01/15 08:57:54;;;;;;;7.20;6.23;;;0.40;99.90;;;;;;5016797;28;20174;-79
2022/01/15 09:00:20;;;;;;;7.60;6.07;;;0.60;99.90;;;;;;5015477;28;20198;-78
2022/01/15 09:02:47;;;;;;;7.07;6.10;;;0.90;99.90;;;;;;5022228;28;20179;-78
2022/01/15 09:05:13;;;;;;;7.47;5.93;;;0.70;99.90;;;;;;5021281;28;20196;-78
2022/01/15 09:07:40;;;;;;;7.27;6.37;;;0.60;99.90;;;;;;5023539;28;20253;-78
2022/01/15 09:10:06;;;;;;;9.77;6.43;;;0.50;99.90;;;;;;5022922;28;20191;-78
2022/01/15 09:12:32;;;;;;;8.43;6.27;;;0.80;99.90;;;;;;5024063;28;20549;-78
2022/01/15 09:14:59;;;;;;;8.17;6.10;;;1.10;99.90;;;;;;5022962;28;20244;-79
2022/01/15 09:17:28;;;;;;;8.57;6.13;;;1.30;99.90;;;;;;5022606;28;20175;-78
2022/01/15 09:19:54;;;;;;;9.70;7.47;;;1.70;99.90;;;;;;5020700;28;20201;-78
2022/01/15 09:22:21;;;;;;;9.53;6.97;;;2.10;99.90;;;;;;5018970;28;20188;-78
2022/01/15 09:24:47;;;;;;;9.03;7.27;;;2.30;99.90;;;;;;5019164;28;20535;-78
2022/01/15 09:30:15;;;;;;;7.83;6.50;;;2.60;99.90;;;;;;5021426;28;20273;-78
2022/01/15 09:32:47;;;;;;;9.73;6.90;;;2.80;99.90;;;;;;5019832;28;20173;-78
2022/01/15 09:35:14;;;;;;;9.47;7.53;;;2.90;99.90;;;;;;5020587;28;20182;-78
2022/01/15 09:37:40;;;;;;;11.87;7.83;;;3.10;99.90;;;;;;5020371;28;20265;-79
2022/01/15 09:40:07;;;;;;;8.63;7.17;;;3.20;99.90;;;;;;5019852;28;20207;-78
2022/01/15 09:42:34;;;;;;;9.00;6.63;;;3.40;99.90;;;;;;5019643;28;20189;-80
2022/01/15 09:45:01;;;;;;;9.57;7.30;;;3.60;99.90;;;;;;5037295;28;20182;-79
2022/01/15 09:47:28;;;;;;;10.60;6.83;;;3.30;99.90;;;;;;5020337;28;20211;-79
2022/01/15 09:49:54;;;;;;;11.70;8.33;;;3.60;99.90;;;;;;5021371;28;20206;-79
2022/01/15 09:52:20;;;;;;;12.73;9.30;;;4.10;99.90;;;;;;5022139;28;20175;-79
2022/01/15 09:54:46;;;;;;;12.00;8.73;;;4.60;99.90;;;;;;5021423;28;20175;-79
2022/01/15 09:57:12;;;;;;;11.53;8.23;;;4.50;99.90;;;;;;5024543;28;20243;-79
2022/01/15 09:59:37;;;;;;;9.10;7.77;;;4.40;99.90;;;;;;5025000;28;20621;-79
2022/01/15 10:02:04;;;;;;;20.60;16.10;;;4.40;99.90;;;;;;5019972;28;20183;-79
2022/01/15 10:04:32;;;;;;;8.17;6.73;;;4.60;99.90;;;;;;5020970;28;20210;-79
2022/01/15 10:07:27;;;;;;;9.57;7.07;;;4.90;99.90;;;;;;5020033;28;20218;-79
2022/01/15 10:09:55;;;;;;;7.13;6.10;;;5.20;99.90;;;;;;5021071;28;20192;-79
2022/01/15 10:12:35;;;;;;;7.23;5.70;;;5.40;99.90;;;;;;5019946;28;20175;-79
2022/01/15 10:15:06;;;;;;;7.13;6.33;;;5.80;99.90;;;;;;5019672;28;20169;-80
2022/01/15 10:17:34;;;;;;;6.60;5.67;;;6.10;99.90;;;;;;5034681;28;20180;-79
2022/01/15 10:20:03;;;;;;;6.17;5.57;;;6.30;99.90;;;;;;5020481;28;20203;-79
2022/01/15 10:22:32;;;;;;;6.63;5.63;;;6.40;99.90;;;;;;5016644;28;20184;-80
2022/01/15 10:25:14;;;;;;;7.53;6.27;;;6.40;99.90;;;;;;5018313;28;20252;-80
2022/01/15 10:27:43;;;;;;;10.17;7.47;;;6.80;99.90;;;;;;5019422;28;20251;-79
2022/01/15 10:30:18;;;;;;;36.73;31.03;;;7.10;99.90;;;;;;5019093;28;20198;-79
2022/01/15 10:32:55;;;;;;;10.43;7.13;;;7.20;99.90;;;;;;5018489;28;20173;-79
2022/01/15 10:35:22;;;;;;;11.10;9.17;;;7.60;99.90;;;;;;5019183;28;20185;-79
2022/01/15 10:38:01;;;;;;;6.10;5.50;;;7.60;99.90;;;;;;5018003;28;20184;-79
2022/01/15 10:40:47;;;;;;;6.60;5.73;;;7.80;99.90;;;;;;5018526;28;20194;-80
2022/01/15 10:43:16;;;;;;;8.50;7.50;;;8.10;99.90;;;;;;5018569;28;20205;-80
2022/01/15 10:45:51;;;;;;;11.67;5.57;;;8.20;99.90;;;;;;5018230;28;20333;-81
2022/01/15 10:48:29;;;;;;;24.97;7.20;;;8.10;99.90;;;;;;5018640;28;20198;-79
2022/01/15 10:51:06;;;;;;;8.10;6.40;;;8.10;99.90;;;;;;5019375;28;20585;-79
2022/01/15 10:53:37;;;;;;;7.30;6.00;;;7.90;99.90;;;;;;5021289;28;20192;-79
2022/01/15 10:56:04;;;;;;;7.97;5.83;;;7.90;99.90;;;;;;5025310;28;20670;-79
2022/01/15 10:58:30;;;;;;;7.20;6.47;;;8.20;99.90;;;;;;5026575;28;20256;-79
2022/01/15 11:00:56;;;;;;;7.60;6.57;;;8.30;99.90;;;;;;5023794;28;20265;-79
2022/01/15 11:03:22;;;;;;;7.90;7.10;;;8.50;99.90;;;;;;5020925;28;20648;-79
2022/01/15 11:05:52;;;;;;;8.27;6.83;;;8.50;99.90;;;;;;5019865;28;20248;-79
2022/01/15 11:08:23;;;;;;;8.23;7.10;;;8.40;99.90;;;;;;5020791;28;20160;-79
2022/01/15 11:10:56;;;;;;;12.23;8.13;;;8.50;99.90;;;;;;5020488;28;20722;-79
2022/01/15 11:13:32;;;;;;;9.73;7.30;;;8.60;99.90;;;;;;5034943;28;20195;-80
2022/01/15 11:16:00;;;;;;;10.87;8.40;;;8.70;99.90;;;;;;5019130;28;20208;-80
2022/01/15 11:18:29;;;;;;;11.50;9.07;;;8.70;99.90;;;;;;5019903;28;20213;-79
2022/01/15 11:20:57;;;;;;;14.67;10.10;;;8.30;99.90;;;;;;5035603;28;20209;-80
2022/01/15 11:23:26;;;;;;;11.30;9.70;;;8.50;99.90;;;;;;5018097;28;20256;-79
2022/01/15 11:25:53;;;;;;;10.87;9.60;;;9.00;99.90;;;;;;5036139;28;20190;-80
2022/01/15 11:28:22;;;;;;;9.93;8.93;;;9.10;99.90;;;;;;5020156;28;20193;-79
2022/01/15 11:30:51;;;;;;;11.37;10.17;;;8.90;99.90;;;;;;5020897;28;20194;-80
2022/01/15 11:33:23;;;;;;;170.20;102.50;;;8.80;99.90;;;;;;5020678;28;20206;-80
2022/01/15 11:35:50;;;;;;;17.80;14.13;;;9.10;99.90;;;;;;5021604;28;20640;-79
2022/01/15 11:38:44;;;;;;;14.37;11.63;;;9.00;99.90;;;;;;5020658;28;20207;-80
2022/01/15 11:41:28;;;;;;;13.70;11.37;;;9.30;99.90;;;;;;5018963;28;20695;-81
2022/01/15 11:44:15;;;;;;;15.27;12.27;;;9.40;99.90;;;;;;5018351;28;20207;-80
2022/01/15 11:46:48;;;;;;;15.17;11.80;;;9.10;99.90;;;;;;5034153;28;20194;-79
2022/01/15 11:49:32;;;;;;;14.37;12.57;;;8.50;99.90;;;;;;5020417;28;20561;-80
2022/01/15 11:52:11;;;;;;;15.53;13.30;;;9.00;99.90;;;;;;5017441;28;20225;-80
2022/01/15 11:55:04;;;;;;;15.90;13.13;;;8.90;99.90;;;;;;5018556;28;20194;-80
2022/01/15 11:57:36;;;;;;;14.47;12.97;;;9.00;99.90;;;;;;5017867;28;20220;-80
2022/01/15 12:00:23;;;;;;;15.20;13.23;;;9.50;99.90;;;;;;5016594;28;20201;-80
2022/01/15 12:03:07;;;;;;;13.53;12.07;;;9.90;99.90;;;;;;5017319;28;20167;-80
2022/01/15 12:05:35;;;;;;;15.07;12.17;;;9.60;99.90;;;;;;5018167;28;20245;-79
2022/01/15 12:08:01;;;;;;;14.53;12.40;;;9.10;99.90;;;;;;5021715;28;20595;-79
2022/01/15 12:10:51;;;;;;;14.07;12.67;;;9.10;99.90;;;;;;5023690;28;20194;-79
2022/01/15 12:13:25;;;;;;;12.73;11.37;;;8.90;99.90;;;;;;5034748;28;20265;-79
2022/01/15 12:16:18;;;;;;;13.60;12.20;;;8.70;99.90;;;;;;5039463;28;20185;-79
2022/01/15 12:18:46;;;;;;;13.90;11.87;;;8.10;99.90;;;;;;5032989;28;20214;-80
2022/01/15 12:21:32;;;;;;;14.50;11.50;;;7.40;99.90;;;;;;5037507;28;20209;-79
2022/01/15 12:24:17;;;;;;;14.00;11.50;;;6.60;99.90;;;;;;5035080;28;20190;-79
2022/01/15 12:27:00;;;;;;;11.50;10.27;;;6.20;99.90;;;;;;5033474;28;20185;-79
2022/01/15 12:29:25;;;;;;;12.43;11.10;;;5.50;99.90;;;;;;5036340;28;20175;-78
2022/01/15 12:31:51;;;;;;;20.43;13.07;;;4.60;99.90;;;;;;5023575;28;20232;-80
2022/01/15 12:34:25;;;;;;;15.17;12.63;;;4.00;99.90;;;;;;5020682;28;20262;-78
2022/01/15 12:36:50;;;;;;;14.53;11.87;;;3.60;99.90;;;;;;5022261;28;20630;-79
2022/01/15 12:39:31;;;;;;;16.27;12.63;;;3.20;99.90;;;;;;5025886;28;20237;-79
2022/01/15 12:41:57;;;;;;;16.43;13.47;;;2.80;99.90;;;;;;5024087;28;20254;-78
2022/01/15 12:44:23;;;;;;;16.77;13.13;;;2.60;99.90;;;;;;5019278;28;20229;-78
2022/01/15 12:46:58;;;;;;;23.10;14.00;;;2.70;99.90;;;;;;5019043;28;20224;-78
2022/01/15 12:49:52;;;;;;;17.20;13.30;;;2.90;99.90;;;;;;5018809;28;20178;-78
2022/01/15 12:52:26;;;;;;;19.47;13.67;;;3.20;99.90;;;;;;5023537;28;20201;-79
2022/01/15 12:54:57;;;;;;;18.00;14.37;;;3.00;99.90;;;;;;5024787;28;20210;-78
2022/01/15 12:57:58;;;;;;;20.63;13.90;;;2.60;99.90;;;;;;5034152;28;20205;-78
2022/01/15 13:00:29;;;;;;;20.63;14.57;;;2.20;99.90;;;;;;5020250;28;20209;-78
2022/01/15 13:03:00;;;;;;;38.67;14.93;;;2.00;99.90;;;;;;5022906;28;20180;-78
2022/01/15 13:05:32;;;;;;;21.80;14.77;;;1.90;99.90;;;;;;5019587;28;20563;-78
2022/01/15 13:08:02;;;;;;;21.00;14.63;;;1.50;99.90;;;;;;5019985;28;20184;-78
2022/01/15 13:10:59;;;;;;;21.67;15.17;;;1.20;99.90;;;;;;5020892;28;20231;-79
2022/01/15 13:13:33;;;;;;;19.83;14.03;;;1.10;99.90;;;;;;5017920;28;20678;-78
2022/01/15 13:16:06;;;;;;;22.03;14.43;;;1.50;99.90;;;;;;5018649;28;20160;-78